Hauptseite
METAR-TAF:

METAR-TAF

Flughäfen :

Memmingen, Deutschland

Breite: 47-59-33N, Länge: 10-14-37E, Höhe: 633 m

Beobachtung

Neuester Wetterbericht von vor 16 Minuten, um 01:50 UTC
Wind 2 kt aus Südost
Temperatur 0°C
Luftfeuchtigkeit 93%
Luftdruck 1020 hPa
Sichtweite 10 km oder mehr

METAR: EDJA 080150Z AUTO 13002KT 9999 // FEW059/// M00/M01 Q1020

Zeit: 04:06 (02:06 UTC)

Prognose

Neuester Wetterbericht von vor 9 Stunden und 6 Minuten, um 17:00 UTC
Gültige Prognose vom 07 um 18 UTC bis 08 um 03 UTC
Wind 12 kt aus West/Nordwest
Sichtweite 10 km oder mehr
keine Wolken unter 1500 m und keine Kumulonimbus oder Gewitterwolken
Übergehend zu
vom 07 um 19 UTC bis 07 um 21 UTC
Wind 4 kt aus Süd
Zeitweise
vom 08 um 01 UTC bis 08 um 03 UTC
Sichtweite: 0400 m
Gefrierender Nebel

TAF: EDJA 071700Z 0718/0803 30012KT CAVOK BECMG 0719/0721 18004KT TEMPO 0801/0803 0400 FZFG

Wetterbeobachtungen und Prognosen von mehr als 4000 Flughäfen (METAR und TAF Bericht).

Die verfügbaren Stationen werden durch gelbe und rote Markierungen auf der Karte dargestellt.

Führen Sie die Maus auf sie, um den Namen der Station zu sehen.

Darauf klicken, um die Beobachtung von Wetterbeobachtungen und Prognosen zu sehen.

Um die Karte zu ändern : klicken Sie auf den grünen Tasten mit einem schwarzen Kreuz Zum Vergrößern, auf den grünen Button mit einem Gedankenstrich zu verkleinern, oder auf die grünen Pfeile für benachbarte Karten.


METAR-TAF: